Addition Hills, Philippines

9:16 PM +08 on June 25, 2017 (GMT +0800)
Wack Wack Village, Mandaluyong | | Change Station

Elev 36 ft 14.59 °N, 121.06 °E | Updated 10 seconds ago

Clear
Clear
81.5 °F
Feels Like 90 °F
N
0.2
Wind Variable Wind from SE
Gusts 2.5 mph

Today
High -- | Low -- °F
--% Chance of Precip.
Yesterday
High -- | Low -- °F
Precip. -- in
Pressure 29.83 in
Visibility 6.2 miles
Clouds Scattered Clouds 2500 ft
Mostly Cloudy 8000 ft
Heat Index 90 °F
Dew Point 79 °F
Humidity 91%
Rainfall 0.00 in
Snow Depth Not available.
5:28 AM 6:28 PM
Waxing Crescent, 3% visible
METAR RPLL 251300Z 04006KT 330V090 9999 SCT025 BKN080 29/25 Q1010 NOSIG RMK A2983
Pressure 29.83 in
Visibility 6.2 miles
Clouds Scattered Clouds 2500 ft
Mostly Cloudy 8000 ft
Heat Index 90 °F
Dew Point 79 °F
Humidity 91%
Rainfall 0.00 in
Snow Depth Not available.
5:28 AM 6:28 PM
Waxing Crescent, 3% visible
METAR RPLL 251300Z 04006KT 330V090 9999 SCT025 BKN080 29/25 Q1010 NOSIG RMK A2983

Get Severe Weather Alerts

Thanks for signing up!

Be on the lookout for a verification email in your inbox.

You'll start receiving the daily forecast at 6 AM.

×

10-Day Weather Forecast

No radar image for this location.
×

Almanac

Astronomy

Jun. 25, 2017 Rise Set
Actual Time
Civil Twilight
Nautical Twilight
Astronomical Twilight
Moon
Length of Visible Light
Length of Day
Tomorrow will be .
, % of the Moon is Illuminated

Today's Extremes

Country Highs Country Lows

Community

WunderPhotos

Category 6

Welcome to Category 6. This is the collective home for Weather Underground's featured writeups by Dr. Jeff Masters (right), Bob Henson (left), Chris Burt, and other regular contributors.

Nearby

Air Quality

  Air Quality AQ Index Pollutant
Not available.

Snow Depth

Station Depth Elevation

Earthquake Activity

City Distance Mag. Time & Date
Minimum magnitude displayed is 2.5.

Coastal Water Temperatures

Place Temperature

Stations

Nearby Weather Stations

Station Location Temp. Windchill Dew Point Humidity Wind Precip. Elev Updated Type